Terminal Aerodrome Forecast
Issued by NWS Sioux Falls, SD

Home | Current Version | Previous Version | Graphics & Text | Print | Product List | Glossary Off
Versions: 1 2 3 4 5 6 7 8 9 10 11 12 13 14 15 16 17 18 19 20 21 22 23 24 25 26

000
FTUS43 KFSD 191742
TAFSUX
TAF
KSUX 191742Z 1918/2018 15012KT P6SM SCT020
     FM192000 15017KT P6SM SCT200
     FM200200 15015KT P6SM SCT200 WS015/16051KT
     FM200800 26013KT P6SM BKN150
     FM200900 29010KT P6SM SCT140
     FM201300 32009KT P6SM FEW250=

USA.gov is the U.S. government's official web portal to all federal, state and local government web resources and services.